Time;durP1;ratioP1;P1;durP2;ratioP2;P2;SDS_P1;SDS_P2;PMS_P1;PMS_P2;Temp;Humidity;BMP_temperature;BMP_pressure;BME280_temperature;BME280_humidity;BME280_pressure;Samples;Min_cycle;Max_cycle;Signal;HPM_P1;HPM_P2
2021/08/23 00:01:09;;;;;;;3.15;1.88;;;;;;;;;;4997854;28;20085;-84
2021/08/23 00:03:36;;;;;;;4.22;2.10;;;;;;;;;;5016275;28;20069;-85
2021/08/23 00:06:05;;;;;;;3.67;1.85;;;;;;;;;;4998413;28;20491;-85
2021/08/23 00:08:32;;;;;;;3.88;1.88;;;;;;;;;;4997151;28;20097;-84
2021/08/23 00:10:58;;;;;;;3.40;1.90;;;;;;;;;;4998458;28;20124;-85
2021/08/23 00:13:25;;;;;;;3.75;1.67;;;;;;;;;;5000192;28;20054;-84
2021/08/23 00:15:55;;;;;;;4.60;1.80;;;;;;;;;;4998412;28;20046;-83
2021/08/23 00:18:22;;;;;;;3.80;1.92;;;;;;;;;;5000044;28;20116;-83
2021/08/23 00:20:54;;;;;;;3.28;1.67;;;;;;;;;;4999583;28;20057;-83
2021/08/23 00:23:25;;;;;;;3.95;1.85;;;;;;;;;;4998834;28;20054;-84
2021/08/23 00:25:52;;;;;;;3.17;1.88;;;;;;;;;;5000369;28;20105;-84
2021/08/23 00:28:20;;;;;;;3.92;2.00;;;;;;;;;;5001095;28;20069;-84
2021/08/23 00:30:47;;;;;;;3.65;1.98;;;;;;;;;;5000151;28;20046;-84
2021/08/23 00:33:14;;;;;;;4.22;1.85;;;;;;;;;;4999948;28;20046;-85
2021/08/23 00:35:41;;;;;;;3.20;1.85;;;;;;;;;;4999041;28;20121;-84
2021/08/23 00:38:08;;;;;;;3.97;1.70;;;;;;;;;;4999966;28;20058;-85
2021/08/23 00:40:37;;;;;;;4.72;2.00;;;;;;;;;;4999296;28;20111;-84
2021/08/23 00:43:05;;;;;;;2.80;1.73;;;;;;;;;;4999093;28;20054;-85
2021/08/23 00:45:32;;;;;;;3.75;1.85;;;;;;;;;;4998286;28;20046;-84
2021/08/23 00:47:59;;;;;;;6.28;2.00;;;;;;;;;;4999000;28;20050;-84
2021/08/23 00:50:26;;;;;;;3.80;1.90;;;;;;;;;;4998909;28;20124;-84
2021/08/23 00:52:53;;;;;;;2.70;1.67;;;;;;;;;;5000094;28;20077;-85
2021/08/23 00:55:20;;;;;;;3.85;1.60;;;;;;;;;;5001850;28;20070;-84
2021/08/23 00:57:48;;;;;;;2.92;1.65;;;;;;;;;;5001039;28;20050;-85
2021/08/23 01:00:15;;;;;;;4.43;2.05;;;;;;;;;;5001414;28;20042;-85
2021/08/23 01:02:48;;;;;;;3.85;2.00;;;;;;;;;;5000267;28;20050;-84
2021/08/23 01:05:19;;;;;;;3.17;1.95;;;;;;;;;;4999675;28;20093;-85
2021/08/23 01:07:52;;;;;;;5.97;2.03;;;;;;;;;;4998990;28;20133;-85
2021/08/23 01:10:25;;;;;;;3.53;2.15;;;;;;;;;;4998102;28;20046;-85
2021/08/23 01:12:54;;;;;;;4.75;2.00;;;;;;;;;;4975455;28;20102;-84
2021/08/23 01:15:22;;;;;;;3.67;2.15;;;;;;;;;;4978261;28;20051;-85
2021/08/23 01:17:49;;;;;;;3.60;1.80;;;;;;;;;;4978677;28;20050;-85
2021/08/23 01:20:16;;;;;;;4.20;1.80;;;;;;;;;;4978770;28;20057;-87
2021/08/23 01:22:46;;;;;;;6.13;1.83;;;;;;;;;;4978997;28;20047;-83
2021/08/23 01:25:17;;;;;;;4.55;2.40;;;;;;;;;;4977672;28;20109;-84
2021/08/23 01:27:57;;;;;;;;;;;;;;;;;;4978444;28;20051;-83
2021/08/23 01:30:27;;;;;;;4.65;2.10;;;;;;;;;;4978581;28;19922;-84
2021/08/23 01:32:55;;;;;;;4.20;1.92;;;;;;;;;;4978636;28;20101;-85
2021/08/23 01:35:23;;;;;;;4.55;2.63;;;;;;;;;;4978226;28;20054;-88
2021/08/23 01:37:50;;;;;;;3.63;2.03;;;;;;;;;;4977798;28;20051;-85
2021/08/23 01:40:17;;;;;;;5.22;2.35;;;;;;;;;;4978132;28;20443;-84
2021/08/23 01:42:45;;;;;;;5.50;2.08;;;;;;;;;;4978459;28;20501;-84
2021/08/23 01:45:12;;;;;;;4.40;2.53;;;;;;;;;;4979368;28;20105;-85
2021/08/23 01:47:39;;;;;;;4.43;2.05;;;;;;;;;;4979349;28;20062;-84
2021/08/23 01:50:09;;;;;;;4.10;2.20;;;;;;;;;;4978608;28;20054;-86
2021/08/23 01:52:36;;;;;;;4.93;2.10;;;;;;;;;;4978235;28;20047;-85
2021/08/23 01:55:03;;;;;;;4.28;2.15;;;;;;;;;;4980686;28;20046;-84
2021/08/23 01:57:29;;;;;;;3.67;1.92;;;;;;;;;;4984207;28;20050;-85
2021/08/23 01:59:56;;;;;;;3.15;2.08;;;;;;;;;;4982838;28;20074;-85
2021/08/23 02:02:23;;;;;;;4.18;2.10;;;;;;;;;;4981170;28;20076;-85
2021/08/23 02:04:50;;;;;;;3.85;2.08;;;;;;;;;;4980169;28;20058;-84
2021/08/23 02:07:18;;;;;;;3.97;2.00;;;;;;;;;;4979721;28;20051;-85
2021/08/23 02:09:45;;;;;;;3.70;2.05;;;;;;;;;;4979953;28;20042;-85
2021/08/23 02:12:12;;;;;;;3.90;2.10;;;;;;;;;;4980079;28;20047;-85
2021/08/23 02:14:39;;;;;;;4.45;2.00;;;;;;;;;;4983646;28;20085;-85
2021/08/23 02:17:07;;;;;;;3.45;1.70;;;;;;;;;;4982115;28;20055;-85
2021/08/23 02:19:34;;;;;;;3.40;1.85;;;;;;;;;;4990020;28;20054;-85
2021/08/23 02:22:03;;;;;;;3.80;1.90;;;;;;;;;;4986517;28;20093;-85
2021/08/23 02:24:33;;;;;;;4.03;1.85;;;;;;;;;;4979012;28;20138;-85
2021/08/23 02:27:00;;;;;;;4.53;1.90;;;;;;;;;;4977844;28;20055;-85
2021/08/23 02:29:26;;;;;;;3.40;1.52;;;;;;;;;;4977797;28;20043;-85
2021/08/23 02:31:53;;;;;;;4.15;1.90;;;;;;;;;;4977352;28;20098;-86
2021/08/23 02:34:20;;;;;;;3.72;1.70;;;;;;;;;;4978026;28;20179;-85
2021/08/23 02:36:47;;;;;;;3.47;1.70;;;;;;;;;;4977562;28;20054;-85
2021/08/23 02:39:13;;;;;;;3.50;1.70;;;;;;;;;;4977602;28;20082;-86
2021/08/23 02:41:41;;;;;;;3.88;1.85;;;;;;;;;;4976498;28;20102;-86
2021/08/23 02:44:08;;;;;;;3.40;2.47;;;;;;;;;;4976106;28;20046;-86
2021/08/23 02:46:35;;;;;;;4.13;1.77;;;;;;;;;;4975710;28;20070;-85
2021/08/23 02:49:02;;;;;;;2.92;1.58;;;;;;;;;;4976519;28;20101;-85
2021/08/23 02:51:28;;;;;;;4.20;1.58;;;;;;;;;;4976638;28;20488;-85
2021/08/23 02:53:55;;;;;;;2.53;1.63;;;;;;;;;;4976780;28;20047;-84
2021/08/23 02:56:22;;;;;;;2.88;1.50;;;;;;;;;;4993060;28;20059;-83
2021/08/23 02:58:50;;;;;;;4.80;1.90;;;;;;;;;;4999025;28;20055;-84
2021/08/23 03:01:17;;;;;;;4.10;1.63;;;;;;;;;;4998894;28;20066;-85
2021/08/23 03:03:44;;;;;;;2.97;1.77;;;;;;;;;;5005082;28;20480;-85
2021/08/23 03:06:12;;;;;;;3.85;1.98;;;;;;;;;;5008000;28;20050;-85
2021/08/23 03:08:38;;;;;;;3.58;1.65;;;;;;;;;;5006450;28;20046;-84
2021/08/23 03:11:07;;;;;;;3.92;1.80;;;;;;;;;;5009225;28;20412;-85
2021/08/23 03:13:34;;;;;;;4.07;1.70;;;;;;;;;;5000022;28;20054;-85
2021/08/23 03:16:03;;;;;;;4.38;2.20;;;;;;;;;;4998564;28;20058;-85
2021/08/23 03:18:29;;;;;;;3.88;1.75;;;;;;;;;;4999067;28;20053;-86
2021/08/23 03:20:56;;;;;;;4.93;2.00;;;;;;;;;;4996254;28;20101;-85
2021/08/23 03:23:23;;;;;;;2.75;1.52;;;;;;;;;;4998189;28;20050;-86
2021/08/23 03:25:50;;;;;;;3.85;2.00;;;;;;;;;;4996968;28;20051;-86
2021/08/23 03:28:17;;;;;;;3.63;1.67;;;;;;;;;;4996330;28;20074;-86
2021/08/23 03:30:44;;;;;;;3.70;1.70;;;;;;;;;;4997406;28;20046;-86
2021/08/23 03:33:12;;;;;;;4.15;1.80;;;;;;;;;;4997749;28;20050;-85
2021/08/23 03:35:39;;;;;;;4.43;1.77;;;;;;;;;;5000245;28;20050;-85
2021/08/23 03:38:06;;;;;;;2.67;1.40;;;;;;;;;;4998410;28;20050;-86
2021/08/23 03:40:33;;;;;;;5.10;1.52;;;;;;;;;;4996517;28;20085;-84
2021/08/23 03:43:00;;;;;;;3.67;1.90;;;;;;;;;;4999195;28;20051;-86
2021/08/23 03:45:27;;;;;;;3.60;1.70;;;;;;;;;;5000437;28;20077;-86
2021/08/23 03:47:54;;;;;;;3.88;1.65;;;;;;;;;;5000085;28;20050;-85
2021/08/23 03:50:22;;;;;;;2.85;1.80;;;;;;;;;;5001283;28;20554;-85
2021/08/23 03:52:49;;;;;;;4.20;1.92;;;;;;;;;;5000925;28;20086;-85
2021/08/23 03:55:16;;;;;;;2.80;1.60;;;;;;;;;;5000246;28;20089;-85
2021/08/23 03:57:42;;;;;;;4.80;2.00;;;;;;;;;;5000574;28;20104;-86
2021/08/23 04:00:10;;;;;;;4.07;1.88;;;;;;;;;;5000853;28;20046;-86
2021/08/23 04:02:38;;;;;;;3.50;2.00;;;;;;;;;;5001262;28;20050;-85
2021/08/23 04:05:05;;;;;;;4.25;1.90;;;;;;;;;;5000751;28;20120;-87
2021/08/23 04:07:34;;;;;;;4.47;2.47;;;;;;;;;;5001155;28;20046;-85
2021/08/23 04:10:00;;;;;;;4.18;2.05;;;;;;;;;;5000979;28;20050;-85
2021/08/23 04:12:27;;;;;;;3.72;1.88;;;;;;;;;;5001686;28;20061;-85
2021/08/23 04:14:54;;;;;;;4.10;2.05;;;;;;;;;;5001737;28;20485;-85
2021/08/23 04:17:21;;;;;;;2.58;1.48;;;;;;;;;;5003892;28;20046;-84
2021/08/23 04:19:47;;;;;;;4.20;2.10;;;;;;;;;;5002699;28;20042;-85
2021/08/23 04:22:14;;;;;;;3.78;2.00;;;;;;;;;;5003422;28;20050;-85
2021/08/23 04:24:42;;;;;;;3.03;1.60;;;;;;;;;;5003788;28;20074;-86
2021/08/23 04:27:09;;;;;;;3.05;1.70;;;;;;;;;;5004903;28;20058;-86
2021/08/23 04:29:36;;;;;;;5.45;2.10;;;;;;;;;;5006822;28;20100;-85
2021/08/23 04:32:03;;;;;;;3.65;1.90;;;;;;;;;;5009080;28;20054;-86
2021/08/23 04:34:30;;;;;;;4.93;2.30;;;;;;;;;;5007820;28;20047;-85
2021/08/23 04:36:57;;;;;;;4.50;1.80;;;;;;;;;;5007485;28;20463;-85
2021/08/23 04:39:24;;;;;;;3.63;1.80;;;;;;;;;;5008680;28;20058;-86
2021/08/23 04:42:34;;;;;;;3.28;1.70;;;;;;;;;;5045630;23;20065;-87
2021/08/23 06:23:09;;;;;;;3.90;1.90;;;;;;;;;;5021020;23;20057;-87
2021/08/23 06:28:29;;;;;;;4.10;2.17;;;;;;;;;;5011619;28;20046;-87
2021/08/23 06:34:31;;;;;;;4.65;2.53;;;;;;;;;;5013000;28;20490;-89
2021/08/23 06:40:32;;;;;;;3.85;2.00;;;;;;;;;;4933258;29;20051;-87
2021/08/23 06:47:18;;;;;;;;;;;;;;;;;;;;;
2021/08/23 06:49:58;;;;;;;3.33;1.95;;;;;;;;;;4977911;28;20039;-88
2021/08/23 06:52:44;;;;;;;4.63;2.15;;;;;;;;;;4972262;28;20069;-87
2021/08/23 06:55:35;;;;;;;4.13;2.10;;;;;;;;;;5005012;28;20056;-87
2021/08/23 07:04:09;;;;;;;3.22;1.85;;;;;;;;;;4997685;28;20057;-87
2021/08/23 07:06:57;;;;;;;3.28;1.80;;;;;;;;;;4992680;28;20049;-88
2021/08/23 07:15:46;;;;;;;4.85;3.35;;;;;;;;;;4997199;28;20445;-88
2021/08/23 07:27:43;;;;;;;;;;;;;;;;;;;;;
2021/08/23 07:52:15;;;;;;;;;;;;;;;;;;;;;
2021/08/23 07:55:25;;;;;;;6.20;4.73;;;;;;;;;;5003388;28;20060;-88
2021/08/23 07:57:52;;;;;;;4.72;3.47;;;;;;;;;;5015244;28;20049;-84
2021/08/23 08:03:44;;;;;;;3.55;1.80;;;;;;;;;;5005121;28;20076;-91
2021/08/23 08:06:19;;;;;;;3.70;1.90;;;;;;;;;;5015264;28;20053;-92
2021/08/23 08:08:49;;;;;;;3.80;2.15;;;;;;;;;;5016179;28;20115;-87
2021/08/23 08:11:16;;;;;;;4.57;2.22;;;;;;;;;;5015523;28;20046;-82
2021/08/23 08:14:14;;;;;;;3.88;2.13;;;;;;;;;;5015439;28;20050;-85
2021/08/23 08:16:45;;;;;;;5.18;2.30;;;;;;;;;;5014997;28;20410;-85
2021/08/23 08:19:14;;;;;;;3.10;1.73;;;;;;;;;;5016002;28;20054;-85
2021/08/23 08:21:47;;;;;;;4.80;2.50;;;;;;;;;;5015563;28;20128;-85
2021/08/23 08:24:21;;;;;;;4.45;2.53;;;;;;;;;;5018137;28;20057;-85
2021/08/23 08:26:51;;;;;;;3.85;1.88;;;;;;;;;;5015824;28;20136;-85
2021/08/23 08:29:18;;;;;;;3.78;2.30;;;;;;;;;;5016821;28;20053;-84
2021/08/23 08:31:46;;;;;;;3.90;2.13;;;;;;;;;;5014960;28;20053;-84
2021/08/23 08:35:03;;;;;;;4.20;2.40;;;;;;;;;;5017372;28;20133;-85
2021/08/23 08:37:56;;;;;;;4.32;3.33;;;;;;;;;;4994774;28;20058;-85
2021/08/23 08:40:32;;;;;;;4.03;2.25;;;;;;;;;;5018575;28;20050;-85
2021/08/23 08:43:34;;;;;;;3.67;2.38;;;;;;;;;;5017338;28;20069;-85
2021/08/23 08:46:16;;;;;;;3.83;1.75;;;;;;;;;;5011488;28;20085;-84
2021/08/23 08:48:58;;;;;;;4.65;2.10;;;;;;;;;;5018322;28;20057;-85
2021/08/23 08:51:42;;;;;;;3.05;1.90;;;;;;;;;;5016600;28;20052;-84
2021/08/23 08:54:14;;;;;;;3.70;2.60;;;;;;;;;;5017371;28;20100;-85
2021/08/23 08:56:45;;;;;;;3.85;2.20;;;;;;;;;;5017100;28;20050;-85
2021/08/23 08:59:18;;;;;;;3.28;2.08;;;;;;;;;;5016913;28;20514;-86
2021/08/23 09:02:08;;;;;;;3.67;1.98;;;;;;;;;;5017272;28;20049;-85
2021/08/23 09:05:01;;;;;;;;;;;;;;;;;;;;;
2021/08/23 09:07:58;;;;;;;3.28;1.70;;;;;;;;;;5023495;28;20046;-86
2021/08/23 09:10:27;;;;;;;4.47;1.90;;;;;;;;;;5021340;28;20049;-85
2021/08/23 09:13:01;;;;;;;3.50;2.08;;;;;;;;;;5039946;28;20042;-85
2021/08/23 09:15:28;;;;;;;3.40;2.05;;;;;;;;;;5037482;28;20065;-84
2021/08/23 09:18:02;;;;;;;6.05;3.75;;;;;;;;;;5030972;28;20042;-83
2021/08/23 09:20:29;;;;;;;3.80;2.20;;;;;;;;;;5029720;28;20411;-84
2021/08/23 09:23:07;;;;;;;3.50;1.67;;;;;;;;;;5031302;28;20104;-85
2021/08/23 09:25:35;;;;;;;5.07;2.17;;;;;;;;;;5022564;28;20088;-84
2021/08/23 09:28:05;;;;;;;4.43;2.75;;;;;;;;;;5019863;28;20105;-84
2021/08/23 09:30:32;;;;;;;4.18;2.35;;;;;;;;;;5019124;28;20056;-82
2021/08/23 09:33:02;;;;;;;2.65;1.80;;;;;;;;;;5019079;28;20050;-83
2021/08/23 09:35:31;;;;;;;4.50;2.38;;;;;;;;;;5019599;28;20077;-84
2021/08/23 09:37:59;;;;;;;3.92;1.70;;;;;;;;;;5019456;28;20096;-86
2021/08/23 09:40:27;;;;;;;3.40;2.13;;;;;;;;;;5021541;28;20099;-85
2021/08/23 09:43:00;;;;;;;4.03;2.00;;;;;;;;;;5019779;28;20458;-85
2021/08/23 09:45:27;;;;;;;3.10;1.88;;;;;;;;;;5019728;28;20050;-85
2021/08/23 09:48:03;;;;;;;3.17;1.95;;;;;;;;;;5019389;28;20076;-84
2021/08/23 09:50:39;;;;;;;4.97;2.20;;;;;;;;;;5019206;28;20515;-85
2021/08/23 09:53:07;;;;;;;3.55;2.00;;;;;;;;;;5016792;28;20355;-84
2021/08/23 09:55:35;;;;;;;3.97;1.90;;;;;;;;;;5015112;28;20129;-84
2021/08/23 09:58:04;;;;;;;3.90;1.92;;;;;;;;;;5017150;28;20046;-84
2021/08/23 10:00:31;;;;;;;5.47;3.35;;;;;;;;;;5016406;28;20104;-84
2021/08/23 10:03:01;;;;;;;3.15;1.40;;;;;;;;;;5016095;28;20045;-84
2021/08/23 10:05:31;;;;;;;4.47;1.50;;;;;;;;;;5015583;28;20045;-85
2021/08/23 10:07:58;;;;;;;;;;;;;;;;;;5016974;28;20050;-84
2021/08/23 10:10:25;;;;;;;3.63;1.90;;;;;;;;;;5020924;28;19925;-84
2021/08/23 10:12:56;;;;;;;4.78;2.72;;;;;;;;;;5020769;28;20046;-84
2021/08/23 10:15:28;;;;;;;4.25;2.70;;;;;;;;;;5035451;28;20034;-84
2021/08/23 10:17:55;;;;;;;4.13;2.45;;;;;;;;;;5036923;28;20068;-84
2021/08/23 10:20:22;;;;;;;2.75;1.70;;;;;;;;;;5036828;28;20072;-83
2021/08/23 10:22:50;;;;;;;4.13;1.90;;;;;;;;;;5036791;28;20070;-82
2021/08/23 10:25:19;;;;;;;4.22;1.80;;;;;;;;;;5036694;28;20046;-82
2021/08/23 10:27:46;;;;;;;4.60;1.87;;;;;;;;;;5037289;28;20108;-83
2021/08/23 10:30:22;;;;;;;3.15;1.63;;;;;;;;;;5032565;28;20042;-84
2021/08/23 10:32:53;;;;;;;3.28;1.42;;;;;;;;;;5037806;28;20057;-84
2021/08/23 10:35:21;;;;;;;3.17;1.70;;;;;;;;;;5037150;28;20084;-84
2021/08/23 10:37:49;;;;;;;4.05;2.00;;;;;;;;;;5038499;28;20029;-84
2021/08/23 10:40:17;;;;;;;3.72;1.73;;;;;;;;;;5025025;28;20034;-84
2021/08/23 10:42:46;;;;;;;3.40;1.60;;;;;;;;;;5018793;28;20042;-84
2021/08/23 10:45:16;;;;;;;4.18;1.95;;;;;;;;;;5018410;28;20034;-84
2021/08/23 10:47:44;;;;;;;3.67;1.70;;;;;;;;;;5018405;28;20042;-85
2021/08/23 10:50:24;;;;;;;3.20;2.00;;;;;;;;;;5018513;28;20101;-84
2021/08/23 10:52:52;;;;;;;3.38;2.00;;;;;;;;;;5018322;28;20077;-83
2021/08/23 10:55:37;;;;;;;2.45;1.40;;;;;;;;;;5018132;28;20030;-86
2021/08/23 10:58:05;;;;;;;3.97;1.90;;;;;;;;;;5017774;28;20044;-83
2021/08/23 11:00:37;;;;;;;4.47;1.95;;;;;;;;;;5018109;28;20064;-83
2021/08/23 11:03:05;;;;;;;4.00;2.03;;;;;;;;;;5032655;28;20049;-83
2021/08/23 11:05:34;;;;;;;3.40;1.83;;;;;;;;;;5036867;28;20261;-84
2021/08/23 11:08:07;;;;;;;3.28;1.80;;;;;;;;;;5036389;28;20081;-84
2021/08/23 11:10:36;;;;;;;2.65;1.65;;;;;;;;;;5036168;28;21278;-85
2021/08/23 11:13:12;;;;;;;3.80;2.22;;;;;;;;;;5027947;28;20061;-83
2021/08/23 11:15:39;;;;;;;4.60;2.00;;;;;;;;;;5016469;28;20045;-84
2021/08/23 11:18:09;;;;;;;2.70;1.40;;;;;;;;;;5008835;28;20050;-84
2021/08/23 11:20:39;;;;;;;3.72;1.70;;;;;;;;;;5001579;28;20054;-85
2021/08/23 11:23:09;;;;;;;4.35;1.70;;;;;;;;;;5002240;28;20058;-84
2021/08/23 11:25:38;;;;;;;3.88;1.67;;;;;;;;;;5001710;28;20555;-85
2021/08/23 11:28:07;;;;;;;3.13;1.48;;;;;;;;;;5002255;28;20058;-84
2021/08/23 11:30:36;;;;;;;3.00;1.77;;;;;;;;;;5001255;28;20050;-85
2021/08/23 11:33:04;;;;;;;3.72;2.20;;;;;;;;;;5002281;28;20049;-85
2021/08/23 11:35:31;;;;;;;3.03;1.75;;;;;;;;;;5006371;28;20046;-85
2021/08/23 11:38:02;;;;;;;3.17;1.92;;;;;;;;;;5017724;28;20058;-83
2021/08/23 11:40:30;;;;;;;3.78;1.67;;;;;;;;;;5015280;23;20055;-84
2021/08/23 11:42:59;;;;;;;2.92;1.83;;;;;;;;;;5000651;28;20042;-83
2021/08/23 11:45:28;;;;;;;3.60;2.00;;;;;;;;;;5000100;28;20086;-83
2021/08/23 11:47:55;;;;;;;3.47;1.70;;;;;;;;;;5000216;28;20100;-84
2021/08/23 11:50:22;;;;;;;2.85;1.75;;;;;;;;;;5000492;28;20046;-82
2021/08/23 11:52:51;;;;;;;3.80;2.55;;;;;;;;;;5000699;28;20042;-82
2021/08/23 11:55:27;;;;;;;4.15;1.92;;;;;;;;;;4997209;28;20050;-84
2021/08/23 11:57:58;;;;;;;2.42;1.55;;;;;;;;;;4997268;28;20496;-82
2021/08/23 12:00:25;;;;;;;2.92;1.58;;;;;;;;;;4996979;28;20137;-85
2021/08/23 12:03:05;;;;;;;3.10;1.73;;;;;;;;;;4985869;28;20054;-83
2021/08/23 12:05:42;;;;;;;4.50;2.45;;;;;;;;;;4979401;28;20039;-82
2021/08/23 12:08:21;;;;;;;4.03;1.90;;;;;;;;;;4984977;28;20054;-83
2021/08/23 12:10:54;;;;;;;2.75;1.48;;;;;;;;;;4983961;28;20043;-81
2021/08/23 12:13:23;;;;;;;3.17;1.88;;;;;;;;;;4984768;28;20047;-82
2021/08/23 12:15:55;;;;;;;5.30;1.90;;;;;;;;;;4984215;28;20073;-82
2021/08/23 12:18:30;;;;;;;3.38;1.90;;;;;;;;;;4997188;28;20051;-81
2021/08/23 12:21:15;;;;;;;3.70;1.55;;;;;;;;;;4990780;28;20115;-82
2021/08/23 12:23:47;;;;;;;3.33;1.88;;;;;;;;;;4984025;28;20078;-84
2021/08/23 12:26:15;;;;;;;5.72;2.55;;;;;;;;;;4983833;28;20046;-82
2021/08/23 12:28:49;;;;;;;3.55;2.10;;;;;;;;;;4982676;28;20051;-82
2021/08/23 12:31:16;;;;;;;3.33;2.08;;;;;;;;;;4982513;28;20051;-83
2021/08/23 12:33:43;;;;;;;4.07;1.63;;;;;;;;;;4982799;28;20131;-81
2021/08/23 12:36:10;;;;;;;3.53;2.08;;;;;;;;;;4981296;28;20050;-82
2021/08/23 12:38:37;;;;;;;4.40;2.65;;;;;;;;;;4981968;28;20492;-82
2021/08/23 12:41:05;;;;;;;2.70;1.70;;;;;;;;;;4981393;28;20051;-82
2021/08/23 12:43:35;;;;;;;3.63;1.67;;;;;;;;;;4980903;28;20161;-80
2021/08/23 12:46:03;;;;;;;4.85;2.05;;;;;;;;;;4979762;28;20054;-80
2021/08/23 12:48:30;;;;;;;4.18;2.50;;;;;;;;;;4980566;28;20043;-81
2021/08/23 12:50:57;;;;;;;3.42;1.92;;;;;;;;;;4980901;28;20051;-80
2021/08/23 12:53:24;;;;;;;4.65;2.95;;;;;;;;;;4989287;28;20043;-81
2021/08/23 12:55:51;;;;;;;2.75;1.83;;;;;;;;;;4992771;28;20050;-79
2021/08/23 12:58:17;;;;;;;3.80;1.80;;;;;;;;;;4997178;28;20051;-80
2021/08/23 13:00:49;;;;;;;4.05;1.60;;;;;;;;;;4999362;28;20055;-82
2021/08/23 13:03:16;;;;;;;2.70;1.30;;;;;;;;;;4998750;28;20055;-80
2021/08/23 13:05:43;;;;;;;4.57;2.10;;;;;;;;;;4999290;28;20066;-81
2021/08/23 13:08:10;;;;;;;2.47;1.55;;;;;;;;;;4988293;28;20057;-84
2021/08/23 13:10:42;;;;;;;3.00;1.50;;;;;;;;;;4983683;28;20463;-84
2021/08/23 13:13:10;;;;;;;2.97;1.60;;;;;;;;;;4981029;28;20133;-83
2021/08/23 13:15:37;;;;;;;3.67;1.60;;;;;;;;;;4980368;28;20089;-81
2021/08/23 13:18:06;;;;;;;3.17;1.52;;;;;;;;;;4994163;28;20376;-83
2021/08/23 13:20:33;;;;;;;3.20;1.40;;;;;;;;;;4991151;28;20077;-83
2021/08/23 13:23:00;;;;;;;3.80;1.60;;;;;;;;;;4988289;28;20051;-83
2021/08/23 13:25:27;;;;;;;2.90;1.60;;;;;;;;;;4981148;28;20075;-84
2021/08/23 13:27:53;;;;;;;3.80;1.70;;;;;;;;;;4981888;28;20121;-83
2021/08/23 13:30:20;;;;;;;3.40;1.48;;;;;;;;;;4982569;28;20058;-83
2021/08/23 13:32:47;;;;;;;2.72;1.40;;;;;;;;;;4980944;28;20452;-83
2021/08/23 13:35:15;;;;;;;2.97;1.70;;;;;;;;;;4979401;28;20121;-83
2021/08/23 13:37:42;;;;;;;3.20;1.58;;;;;;;;;;4981038;28;20069;-84
2021/08/23 13:40:10;;;;;;;3.20;1.50;;;;;;;;;;4981411;28;20566;-83
2021/08/23 13:42:37;;;;;;;2.97;1.60;;;;;;;;;;4980533;28;20098;-84
2021/08/23 13:45:04;;;;;;;2.83;1.65;;;;;;;;;;4979046;28;20066;-81
2021/08/23 13:47:31;;;;;;;3.40;1.67;;;;;;;;;;4979527;28;20109;-84
2021/08/23 13:49:58;;;;;;;3.50;1.83;;;;;;;;;;4979457;28;20058;-83
2021/08/23 13:52:26;;;;;;;2.95;1.90;;;;;;;;;;4979718;28;20050;-83
2021/08/23 13:54:54;;;;;;;2.78;1.55;;;;;;;;;;4980326;28;20055;-81
2021/08/23 13:57:21;;;;;;;2.85;1.75;;;;;;;;;;4979361;28;20133;-83
2021/08/23 13:59:47;;;;;;;2.95;1.63;;;;;;;;;;4984546;28;20046;-83
2021/08/23 14:02:14;;;;;;;2.58;1.60;;;;;;;;;;4991987;28;20027;-79
2021/08/23 14:04:41;;;;;;;3.85;1.60;;;;;;;;;;4983791;28;20165;-83
2021/08/23 14:07:08;;;;;;;2.60;1.80;;;;;;;;;;4981608;28;20050;-83
2021/08/23 14:09:36;;;;;;;3.05;1.50;;;;;;;;;;4980727;28;20074;-82
2021/08/23 14:12:03;;;;;;;3.97;1.52;;;;;;;;;;4980681;28;20047;-84
2021/08/23 14:14:30;;;;;;;2.95;1.63;;;;;;;;;;4980429;28;20496;-83
2021/08/23 14:16:57;;;;;;;2.67;1.50;;;;;;;;;;4988270;28;20047;-81
2021/08/23 14:19:24;;;;;;;3.40;1.60;;;;;;;;;;4999834;28;20041;-81
2021/08/23 14:21:50;;;;;;;2.03;1.27;;;;;;;;;;4999623;28;20046;-79
2021/08/23 14:24:18;;;;;;;3.65;1.48;;;;;;;;;;4999049;28;20059;-79
2021/08/23 14:26:46;;;;;;;2.75;1.60;;;;;;;;;;4994502;28;20062;-83
2021/08/23 14:29:12;;;;;;;2.70;1.40;;;;;;;;;;4983183;28;20187;-83
2021/08/23 14:31:39;;;;;;;2.72;1.20;;;;;;;;;;4978429;28;20050;-81
2021/08/23 14:34:07;;;;;;;3.17;1.60;;;;;;;;;;4978846;28;20051;-83
2021/08/23 14:36:35;;;;;;;2.50;1.25;;;;;;;;;;4978496;28;20047;-83
2021/08/23 14:39:02;;;;;;;3.50;1.35;;;;;;;;;;4978969;28;20042;-83
2021/08/23 14:41:32;;;;;;;3.00;1.33;;;;;;;;;;4989836;28;20026;-84
2021/08/23 14:44:00;;;;;;;3.25;1.67;;;;;;;;;;4990283;28;20049;-84
2021/08/23 14:46:27;;;;;;;2.22;1.45;;;;;;;;;;4980081;28;20054;-82
2021/08/23 14:48:54;;;;;;;2.65;1.45;;;;;;;;;;4978788;28;20051;-81
2021/08/23 14:51:20;;;;;;;3.92;1.70;;;;;;;;;;4979604;28;20047;-83
2021/08/23 14:53:47;;;;;;;4.60;2.90;;;;;;;;;;4979762;28;20046;-82
2021/08/23 14:56:14;;;;;;;3.30;1.50;;;;;;;;;;4978059;28;20125;-81
2021/08/23 14:58:41;;;;;;;2.72;1.65;;;;;;;;;;4977718;28;20452;-82
2021/08/23 15:01:12;;;;;;;2.97;1.75;;;;;;;;;;4978372;28;20463;-83
2021/08/23 15:03:38;;;;;;;2.47;1.42;;;;;;;;;;4981156;28;20074;-80
2021/08/23 15:06:05;;;;;;;3.80;1.42;;;;;;;;;;4977022;28;20047;-82
2021/08/23 15:08:32;;;;;;;3.45;1.67;;;;;;;;;;4992341;28;20027;-79
2021/08/23 15:10:59;;;;;;;2.95;1.52;;;;;;;;;;4996085;28;20070;-79
2021/08/23 15:13:26;;;;;;;4.28;1.88;;;;;;;;;;4996268;28;20035;-79
2021/08/23 15:15:53;;;;;;;3.20;1.55;;;;;;;;;;4995665;28;20047;-80
2021/08/23 15:18:21;;;;;;;3.50;1.50;;;;;;;;;;4995198;28;20072;-81
2021/08/23 15:20:48;;;;;;;3.35;1.80;;;;;;;;;;4988877;28;20074;-84
2021/08/23 15:23:17;;;;;;;3.10;1.48;;;;;;;;;;4982473;28;20051;-83
2021/08/23 15:25:44;;;;;;;2.58;1.38;;;;;;;;;;4981461;28;20082;-82
2021/08/23 15:28:11;;;;;;;3.17;1.58;;;;;;;;;;4986142;28;20070;-80
2021/08/23 15:30:37;;;;;;;3.75;1.40;;;;;;;;;;4980167;28;20055;-83
2021/08/23 15:33:08;;;;;;;3.28;1.60;;;;;;;;;;4980220;28;20051;-82
2021/08/23 15:35:36;;;;;;;2.53;1.33;;;;;;;;;;4978437;28;20043;-82
2021/08/23 15:38:03;;;;;;;3.65;1.50;;;;;;;;;;4985361;28;20142;-82
2021/08/23 15:40:30;;;;;;;4.10;2.00;;;;;;;;;;4980722;28;20046;-82
2021/08/23 15:42:57;;;;;;;5.50;2.08;;;;;;;;;;4980738;28;20102;-82
2021/08/23 15:45:24;;;;;;;3.35;1.70;;;;;;;;;;4984824;28;20082;-81
2021/08/23 15:47:52;;;;;;;3.00;1.60;;;;;;;;;;4983009;28;20062;-82
2021/08/23 15:50:19;;;;;;;4.47;1.90;;;;;;;;;;4983630;28;20063;-81
2021/08/23 15:52:48;;;;;;;3.67;1.70;;;;;;;;;;4982835;28;20075;-81
2021/08/23 15:55:15;;;;;;;3.75;1.77;;;;;;;;;;4983737;28;20051;-81
2021/08/23 15:57:43;;;;;;;3.25;1.52;;;;;;;;;;4982779;28;20062;-81
2021/08/23 16:00:11;;;;;;;3.70;1.60;;;;;;;;;;4981770;28;20075;-81
2021/08/23 16:02:39;;;;;;;3.15;1.50;;;;;;;;;;4981516;28;20050;-82
2021/08/23 16:05:07;;;;;;;3.78;1.70;;;;;;;;;;4983121;28;20043;-81
2021/08/23 16:07:34;;;;;;;3.70;1.85;;;;;;;;;;4986264;28;20407;-82
2021/08/23 16:10:04;;;;;;;3.03;1.70;;;;;;;;;;4988062;28;20046;-82
2021/08/23 16:12:30;;;;;;;3.58;1.88;;;;;;;;;;4994164;28;20043;-83
2021/08/23 16:14:57;;;;;;;5.63;4.47;;;;;;;;;;4992603;28;20061;-82
2021/08/23 16:17:25;;;;;;;4.05;1.88;;;;;;;;;;4991416;28;20137;-82
2021/08/23 16:19:51;;;;;;;3.67;2.10;;;;;;;;;;4993450;28;20054;-82
2021/08/23 16:22:18;;;;;;;3.25;1.60;;;;;;;;;;4987594;28;20389;-83
2021/08/23 16:24:45;;;;;;;3.50;2.20;;;;;;;;;;4988098;28;20042;-82
2021/08/23 16:27:13;;;;;;;4.32;2.38;;;;;;;;;;4987464;28;20393;-82
2021/08/23 16:29:40;;;;;;;4.78;1.77;;;;;;;;;;4989949;28;20054;-83
2021/08/23 16:32:07;;;;;;;3.22;1.75;;;;;;;;;;4995301;28;20050;-82
2021/08/23 16:34:34;;;;;;;4.40;2.00;;;;;;;;;;4989232;28;20043;-85
2021/08/23 16:37:01;;;;;;;3.30;1.77;;;;;;;;;;4986925;28;20074;-82
2021/08/23 16:39:29;;;;;;;3.42;1.98;;;;;;;;;;4986377;28;20051;-82
2021/08/23 16:41:59;;;;;;;4.30;2.05;;;;;;;;;;4985102;28;20099;-82
2021/08/23 16:44:28;;;;;;;3.20;1.70;;;;;;;;;;4985299;28;20500;-83
2021/08/23 16:46:56;;;;;;;3.58;1.98;;;;;;;;;;4981971;28;20849;-83
2021/08/23 16:49:22;;;;;;;5.88;2.20;;;;;;;;;;4984990;28;20054;-83
2021/08/23 16:51:49;;;;;;;4.28;2.67;;;;;;;;;;4984736;28;20070;-84
2021/08/23 16:54:16;;;;;;;6.68;4.03;;;;;;;;;;4984712;28;20050;-82
2021/08/23 16:56:43;;;;;;;4.22;2.65;;;;;;;;;;4984146;28;20109;-82
2021/08/23 16:59:10;;;;;;;3.20;2.13;;;;;;;;;;4986513;28;20109;-83
2021/08/23 17:01:39;;;;;;;5.85;2.95;;;;;;;;;;4987022;28;20467;-83
2021/08/23 17:04:06;;;;;;;5.00;2.53;;;;;;;;;;4990211;28;20066;-83
2021/08/23 17:06:33;;;;;;;6.63;4.32;;;;;;;;;;4996833;28;20027;-83
2021/08/23 17:08:59;;;;;;;4.88;3.40;;;;;;;;;;4988087;28;20051;-83
2021/08/23 17:11:26;;;;;;;5.28;3.60;;;;;;;;;;4988619;28;20742;-84
2021/08/23 17:13:53;;;;;;;5.53;3.83;;;;;;;;;;4986341;28;20051;-84
2021/08/23 17:16:20;;;;;;;5.55;3.75;;;;;;;;;;4985804;28;20055;-84
2021/08/23 17:18:48;;;;;;;5.93;4.60;;;;;;;;;;4986259;28;20070;-84
2021/08/23 17:21:15;;;;;;;4.65;3.30;;;;;;;;;;4984312;28;20105;-84
2021/08/23 17:23:41;;;;;;;6.13;3.92;;;;;;;;;;4988295;28;20125;-84
2021/08/23 17:26:08;;;;;;;6.03;3.95;;;;;;;;;;4983556;28;20055;-85
2021/08/23 17:28:35;;;;;;;5.60;4.00;;;;;;;;;;4967172;28;20094;-84
2021/08/23 17:31:02;;;;;;;6.43;4.30;;;;;;;;;;4992375;28;20039;-80
2021/08/23 17:33:29;;;;;;;5.78;3.85;;;;;;;;;;5000194;28;20074;-80
2021/08/23 17:35:57;;;;;;;4.85;3.95;;;;;;;;;;4999706;28;20098;-81
2021/08/23 17:38:24;;;;;;;6.38;4.38;;;;;;;;;;5000682;28;20094;-80
2021/08/23 17:40:51;;;;;;;6.20;4.38;;;;;;;;;;5000410;28;20034;-80